Childress Municipal Airport
KCDS : now visible

Airfield :











YOU CAN JOIN US ON...

 
LOGIN :

Register | Disclaimer

   EN    FR    IT 

 









Legend :    VFR   Marginal VFR   IFR   Intensive IFR   Very Intensive IFR
Visi :
Ceiling :
>= 8 km
>= 3000ft
5 to 8 km
1000 to 3000 ft
1500m to 5 km
500 to 1000 ft
800 to 1500m
200 to 500 ft
< 800m
< 200 ft
Symbols :   Thunderstorms  Fog  Heavy snow  Heavy precipitations  Wind > 20 kt






- Airport Elevation : 1954 ft


KCDS - Childress Municipal

CURRENT METAR :
  • 301553Z AUTO 21009KT CLR 12/03 A3033 RMK AO2 SLPNO T01220033 $

EXPIRED METARs :
  • 301453Z AUTO 20006KT CLR 10/03 A3032 RMK AO2 SLPNO T01000028 52012 $
  • 301353Z AUTO 00000KT CLR 06/02 A3031 RMK AO2 SLPNO T00610022 $

TAF KCDS
Valid from the 30 at 12:00 until the 31 at 12:00 UTC


301132Z 3012/3112 VRB06KT P6SM FEW250
FM302100 17011KT P6SM SKC
KZFW FIR / North America



MET'MAP, your aeronautical weather chart ! - Copyright ORBIFLY December 2007 - Disclaimer

ORBIFLY MET'MAP TEAM :

Programming & Development : Alexandra Zaïnal
Concept & original design : Baudouin d'Aumeries
Assistance for programming : Marc-Olivier Méhu
Technical & hardware support : Manuel Goepfert

Contact : metmap@orbifly.com




SOURCES & CREDITS :

   NOAA       Earth
Advisory